Create Tblcommutelog Verified Points Advance Search
| # | Trip ID | Id Commuter | Trip Date | Trip Num | Current Lat | Current Lng | Delta Distance | Current Time | Activity | Activity Confidence | Current Speed | |
|---|---|---|---|---|---|---|---|---|---|---|---|---|
| 73141 | 251008_750610_16479164_0842 | 750610 | (not set) | (not set) | 38.804761133734 | -77.044332183264 | 17.4384 | 2025-10-08 09:23:19 | in_vehicle | 100 | -0.44703925898772 | |
| 73142 | 251008_780809_16496249_0818 | 780809 | (not set) | (not set) | 38.886867900331 | -77.095903468513 | 19.0227 | 2025-10-08 09:23:20 | in_vehicle | 100 | -0.44703925898772 | |
| 73143 | 251008_785733_16424909_0918 | 785733 | (not set) | (not set) | 38.9020417 | -77.0227263 | 0.6715 | 2025-10-08 09:23:21 | on_bicycle | 100 | 3.0309261759368 | |
| 73144 | 251008_785733_16424909_0918 | 785733 | (not set) | (not set) | 38.9020417 | -77.0227263 | 0.6715 | 2025-10-08 09:23:21 | on_bicycle | 100 | 3.0309261759368 | |
| 73145 | 251008_785733_16424909_0918 | 785733 | (not set) | (not set) | 38.9020417 | -77.0227263 | 0.6715 | 2025-10-08 09:23:21 | on_bicycle | 100 | 3.0309261759368 | |
| 73146 | 251008_777589_16507005_0913 | 777589 | (not set) | (not set) | 38.799035508357 | -77.201580062259 | 3.4694 | 2025-10-08 09:23:22 | in_vehicle | 100 | 7.4789668028646 | |
| 73147 | 251008_780789_16421763_0843 | 780789 | (not set) | (not set) | 38.917875747768 | -77.217201970834 | 31.8494 | 2025-10-08 09:23:24 | unknown | 100 | 10.496481801032 | |
| 73148 | 251008_775362_16511535_0906 | 775362 | (not set) | (not set) | 38.880994290615 | -77.014576874279 | 3.4188 | 2025-10-08 09:23:24 | in_vehicle | 100 | -0.44703925898772 | |
| 73149 | 251008_787150_16428277_0857 | 787150 | (not set) | (not set) | 39.015045946719 | -76.613214770116 | 21.6158 | 2025-10-08 09:23:25 | in_vehicle | 100 | 10.317666097437 | |
| 73150 | 251008_780805_16496249_0856 | 780805 | (not set) | (not set) | 38.897893026664 | -77.007323109048 | 9.7854 | 2025-10-08 09:23:27 | in_vehicle | 100 | -0.44703925898772 | |
| 73151 | 251008_780805_16496249_0856 | 780805 | (not set) | (not set) | 38.897754039607 | -77.007336262163 | 9.9569 | 2025-10-08 09:23:29 | in_vehicle | 100 | -0.44703925898772 | |
| 73152 | 251008_775362_16511535_0906 | 775362 | (not set) | (not set) | 38.881579920486 | -77.014641594329 | 3.4188 | 2025-10-08 09:23:37 | in_vehicle | 100 | -0.44703925898772 | |
| 73153 | 251008_787150_16428277_0857 | 787150 | (not set) | (not set) | 39.012271050115 | -76.612503274085 | 21.811 | 2025-10-08 09:23:38 | in_vehicle | 100 | 11.582787200372 | |
| 73154 | 251008_787384_6461772_0826 | 787384 | (not set) | (not set) | 38.984265100726 | -77.094510184746 | 18.3064 | 2025-10-08 09:23:38 | in_vehicle | 100 | -0.44703925898772 | |
| 73155 | 251008_787384_6461772_0826 | 787384 | (not set) | (not set) | 38.984265100726 | -77.094510184746 | 18.3064 | 2025-10-08 09:23:38 | in_vehicle | 100 | -0.44703925898772 | |
| 73156 | 251008_777589_16507005_0913 | 777589 | (not set) | (not set) | 38.799566160474 | -77.203867117147 | 3.5982 | 2025-10-08 09:23:41 | in_vehicle | 100 | 3.3170313016889 | |
| 73157 | 251008_780809_16496249_0818 | 780809 | (not set) | (not set) | 38.886679487541 | -77.098153143072 | 19.0227 | 2025-10-08 09:23:44 | in_vehicle | 100 | -0.44703925898772 | |
| 73158 | 251008_787150_16428277_0857 | 787150 | (not set) | (not set) | 39.009635789322 | -76.611338586257 | 22.0033 | 2025-10-08 09:23:50 | in_vehicle | 100 | 11.64537269663 | |
| 73159 | 251008_777541_16512424_0911 | 777541 | (not set) | (not set) | 38.916736000933 | -77.036547264719 | 0.4728 | 2025-10-08 09:23:50 | still | 33 | -0.44703925898772 | |
| 73160 | 251008_777541_16512424_0911 | 777541 | (not set) | (not set) | 38.916736000933 | -77.036547264719 | 0.6764 | 2025-10-08 09:23:50 | still | 33 | -0.44703925898772 |